Time;durP1;ratioP1;P1;durP2;ratioP2;P2;SDS_P1;SDS_P2;PMS_P1;PMS_P2;Temp;Humidity;BMP_temperature;BMP_pressure;BME280_temperature;BME280_humidity;BME280_pressure;Samples;Min_cycle;Max_cycle;Signal;HPM_P1;HPM_P2
2023/09/02 00:01:53;;;;;;;7.22;4.47;;;;;;;17.09;59.81;100421.41;5089639;28;20201;-60
2023/09/02 00:04:21;;;;;;;7.32;4.05;;;;;;;17.09;59.64;100424.00;5088244;28;20201;-65
2023/09/02 00:06:49;;;;;;;7.22;4.22;;;;;;;17.12;59.85;100426.50;5089032;28;20228;-61
2023/09/02 00:09:19;;;;;;;5.75;3.92;;;;;;;17.16;59.71;100417.72;5092196;28;20570;-60
2023/09/02 00:11:46;;;;;;;5.95;3.97;;;;;;;17.18;59.45;100422.84;5090690;28;20539;-62
2023/09/02 00:14:14;;;;;;;10.48;4.43;;;;;;;17.20;59.52;100424.50;5089508;28;20192;-59
2023/09/02 00:16:42;;;;;;;5.55;4.00;;;;;;;17.22;60.46;100420.09;5091615;28;20697;-65
2023/09/02 00:19:10;;;;;;;8.18;3.95;;;;;;;17.24;60.71;100420.91;5084993;28;20678;-60
2023/09/02 00:21:38;;;;;;;6.40;4.20;;;;;;;17.27;61.08;100423.41;5084112;28;20215;-60
2023/09/02 00:24:07;;;;;;;7.18;3.50;;;;;;;17.26;61.17;100426.91;5091721;28;20617;-61
2023/09/02 00:26:36;;;;;;;6.00;4.45;;;;;;;17.27;61.25;100426.00;5091433;28;20207;-62
2023/09/02 00:29:04;;;;;;;8.90;5.50;;;;;;;17.30;61.01;100430.25;5085504;28;20215;-61
2023/09/02 00:31:33;;;;;;;5.10;4.15;;;;;;;17.30;60.05;100430.25;5084061;28;20208;-61
2023/09/02 00:34:01;;;;;;;6.32;4.38;;;;;;;17.29;60.76;100431.16;5088336;28;20200;-60
2023/09/02 00:36:30;;;;;;;7.93;4.90;;;;;;;17.30;60.85;100433.69;5089029;28;20675;-60
2023/09/02 00:38:59;;;;;;;7.85;4.82;;;;;;;17.34;60.90;100443.16;5086953;28;20209;-60
2023/09/02 00:41:32;;;;;;;6.97;4.57;;;;;;;17.34;60.89;100430.13;5088376;28;20283;-63
2023/09/02 00:44:02;;;;;;;8.82;4.70;;;;;;;17.36;60.88;100430.91;5089746;28;20200;-65
2023/09/02 00:46:31;;;;;;;6.90;4.53;;;;;;;17.36;61.33;100433.50;5082880;28;20232;-60
2023/09/02 00:48:59;;;;;;;6.40;4.53;;;;;;;17.34;61.47;100427.50;5086576;28;20235;-60
2023/09/02 00:51:27;;;;;;;8.40;4.55;;;;;;;17.34;61.68;100432.72;5090479;28;20204;-60
2023/09/02 00:53:56;;;;;;;6.45;4.40;;;;;;;17.33;61.46;100435.38;5090309;28;20220;-60
2023/09/02 00:56:24;;;;;;;5.90;4.35;;;;;;;17.30;60.73;100433.69;5090607;28;20613;-62
2023/09/02 00:58:53;;;;;;;7.55;4.78;;;;;;;17.28;60.77;100432.06;5093139;28;20208;-64
2023/09/02 01:01:22;;;;;;;8.10;4.53;;;;;;;17.26;60.90;100429.50;5092154;28;20200;-60
2023/09/02 01:03:51;;;;;;;5.95;4.63;;;;;;;17.27;61.08;100427.75;5085857;28;20273;-60
2023/09/02 01:06:19;;;;;;;8.38;4.68;;;;;;;17.28;61.41;100427.72;5089619;28;20915;-61
2023/09/02 01:08:47;;;;;;;7.25;4.15;;;;;;;17.31;61.44;100432.81;5078090;28;20258;-60
2023/09/02 01:11:15;;;;;;;5.82;4.55;;;;;;;17.31;61.89;100427.63;5089351;28;20902;-61
2023/09/02 01:13:44;;;;;;;6.22;4.43;;;;;;;17.33;62.48;100435.38;5086067;28;20204;-61
2023/09/02 01:16:11;;;;;;;8.05;4.30;;;;;;;17.33;62.93;100433.59;5092890;28;20211;-58
2023/09/02 01:18:41;;;;;;;6.47;4.03;;;;;;;17.33;63.32;100430.16;5090229;28;20585;-60
2023/09/02 01:21:40;;;;;;;5.55;4.15;;;;;;;17.31;63.33;100432.81;5088138;28;20214;-63
2023/09/02 01:24:38;;;;;;;6.80;4.10;;;;;;;17.31;63.18;100439.78;5089211;28;20570;-60
2023/09/02 01:27:18;;;;;;;5.60;4.13;;;;;;;17.29;63.08;100439.81;5084533;28;20246;-60
2023/09/02 01:29:55;;;;;;;7.47;4.20;;;;;;;17.27;62.40;100444.25;5089724;28;20205;-62
2023/09/02 01:32:27;;;;;;;5.30;4.00;;;;;;;17.24;62.19;100440.88;5101946;28;20213;-60
2023/09/02 01:34:57;;;;;;;5.95;4.40;;;;;;;17.24;62.70;100441.75;5090679;28;20580;-58
2023/09/02 01:37:26;;;;;;;6.38;4.07;;;;;;;17.24;63.16;100444.34;5090077;28;20208;-61
2023/09/02 01:39:58;;;;;;;6.57;4.07;;;;;;;17.23;63.07;100450.47;5083500;28;20210;-58
2023/09/02 01:42:27;;;;;;;5.38;4.43;;;;;;;17.22;63.85;100448.72;5087644;28;20232;-60
2023/09/02 01:44:56;;;;;;;5.72;3.60;;;;;;;17.20;64.23;100453.16;5086758;28;20205;-60
2023/09/02 01:47:24;;;;;;;7.63;4.10;;;;;;;17.19;64.29;100440.16;5087436;28;20224;-60
2023/09/02 01:49:53;;;;;;;5.30;3.75;;;;;;;17.17;63.61;100445.44;5081355;28;20243;-61
2023/09/02 01:52:22;;;;;;;5.82;3.85;;;;;;;17.14;64.27;100443.78;5085651;28;20204;-63
2023/09/02 01:54:51;;;;;;;8.00;4.40;;;;;;;17.13;64.35;100439.47;5091266;28;20994;-61
2023/09/02 01:57:19;;;;;;;4.50;4.03;;;;;;;17.08;64.49;100436.16;5080349;28;20220;-59
2023/09/02 01:59:49;;;;;;;8.43;4.53;;;;;;;17.03;64.48;100440.66;5094451;28;20248;-59
2023/09/02 02:02:17;;;;;;;5.15;3.85;;;;;;;16.98;64.64;100433.91;5087267;28;20212;-59
2023/09/02 02:04:50;;;;;;;6.03;4.45;;;;;;;16.97;64.76;100437.41;5091349;28;20693;-60
2023/09/02 02:07:21;;;;;;;6.07;4.35;;;;;;;16.96;65.06;100441.75;5086620;28;20295;-60
2023/09/02 02:09:53;;;;;;;6.15;4.30;;;;;;;16.95;64.69;100441.81;5088541;28;20208;-60
2023/09/02 02:12:21;;;;;;;5.40;3.72;;;;;;;16.95;65.55;100444.44;5084598;28;20651;-60
2023/09/02 02:14:50;;;;;;;8.27;4.40;;;;;;;16.94;66.05;100447.91;5086789;28;20204;-59
2023/09/02 02:17:18;;;;;;;5.60;4.13;;;;;;;16.90;66.28;100440.22;5082769;28;20652;-59
2023/09/02 02:19:46;;;;;;;5.68;3.60;;;;;;;16.89;66.61;100446.31;5090730;28;20662;-63
2023/09/02 02:22:14;;;;;;;7.30;4.47;;;;;;;16.86;66.79;100449.03;5087076;28;20212;-60
2023/09/02 02:24:43;;;;;;;6.22;4.13;;;;;;;16.81;66.80;100443.09;5088953;28;20989;-59
2023/09/02 02:27:10;;;;;;;8.82;3.80;;;;;;;16.77;67.02;100440.63;5087057;28;20667;-61
2023/09/02 02:29:39;;;;;;;5.38;4.07;;;;;;;16.74;67.14;100444.19;5084101;28;20208;-61
2023/09/02 02:32:08;;;;;;;5.78;3.65;;;;;;;16.74;66.56;100448.53;5086160;28;20246;-58
2023/09/02 02:34:36;;;;;;;4.85;3.92;;;;;;;16.70;67.49;100450.34;5088657;28;20581;-59
2023/09/02 02:37:04;;;;;;;6.65;4.00;;;;;;;16.67;67.86;100445.22;5084720;28;20296;-59
2023/09/02 02:39:33;;;;;;;5.25;3.90;;;;;;;16.65;68.01;100444.44;5084579;28;20216;-63
2023/09/02 02:42:01;;;;;;;7.72;3.63;;;;;;;16.66;67.84;100446.13;5086747;28;20240;-63
2023/09/02 02:44:29;;;;;;;5.80;3.60;;;;;;;16.65;68.13;100441.84;5086982;28;20215;-64
2023/09/02 02:46:57;;;;;;;6.43;3.28;;;;;;;16.66;68.26;100446.13;5087956;28;20209;-62
2023/09/02 02:49:27;;;;;;;6.28;3.80;;;;;;;16.65;68.08;100442.69;5094997;28;20237;-60
2023/09/02 02:51:56;;;;;;;7.63;4.22;;;;;;;16.61;67.84;100442.81;5091079;28;20289;-59
2023/09/02 02:54:24;;;;;;;6.95;4.13;;;;;;;16.60;68.06;100456.72;5096752;28;20231;-60
2023/09/02 02:56:51;;;;;;;5.68;4.05;;;;;;;16.58;67.76;100453.31;5095870;28;20208;-60
2023/09/02 02:59:19;;;;;;;6.63;4.35;;;;;;;16.55;67.53;100451.66;5083856;28;20307;-59
2023/09/02 03:01:47;;;;;;;5.05;4.07;;;;;;;16.56;67.12;100455.09;5089602;28;20260;-60
2023/09/02 03:04:17;;;;;;;6.05;4.30;;;;;;;16.55;66.92;100451.66;5088109;28;20230;-60
2023/09/02 03:06:46;;;;;;;7.30;4.75;;;;;;;16.57;66.92;100456.78;5088238;28;20204;-62
2023/09/02 03:09:15;;;;;;;6.97;4.15;;;;;;;16.59;66.97;100457.63;5097001;28;20204;-62
2023/09/02 03:11:43;;;;;;;5.63;3.72;;;;;;;16.59;67.09;100455.88;5086533;28;20231;-62
2023/09/02 03:14:11;;;;;;;5.50;4.60;;;;;;;16.56;67.26;100442.94;5083590;28;20657;-59
2023/09/02 03:16:39;;;;;;;8.80;4.68;;;;;;;16.55;66.61;100446.44;5093033;28;20659;-61
2023/09/02 03:19:07;;;;;;;5.95;4.10;;;;;;;16.53;67.16;100447.38;5084800;28;20223;-62
2023/09/02 03:21:35;;;;;;;5.65;4.22;;;;;;;16.51;67.39;100446.59;5090970;28;20238;-60
2023/09/02 03:24:04;;;;;;;8.65;4.40;;;;;;;16.48;67.62;100444.94;5082892;28;20660;-59
2023/09/02 03:26:32;;;;;;;7.97;4.55;;;;;;;16.47;67.28;100442.38;5086524;28;20251;-60
2023/09/02 03:29:00;;;;;;;7.05;4.30;;;;;;;16.46;67.33;100440.66;5090981;28;20228;-61
2023/09/02 03:31:28;;;;;;;5.60;4.43;;;;;;;16.46;67.23;100445.84;5088424;28;20302;-61
2023/09/02 03:33:56;;;;;;;6.22;4.82;;;;;;;16.42;67.29;100445.97;5090831;28;20201;-58
2023/09/02 03:36:24;;;;;;;8.10;4.50;;;;;;;16.42;66.93;100448.56;5084644;28;20705;-61
2023/09/02 03:38:52;;;;;;;6.80;4.30;;;;;;;16.39;66.68;100451.25;5092687;28;20240;-60
2023/09/02 03:41:23;;;;;;;6.45;4.43;;;;;;;16.39;67.20;100448.66;5099509;28;20238;-60
2023/09/02 03:43:51;;;;;;;6.32;4.63;;;;;;;16.39;67.34;100451.25;5080861;28;20711;-60
2023/09/02 03:46:19;;;;;;;11.48;4.93;;;;;;;16.38;66.73;100446.94;5092606;28;20644;-60
2023/09/02 03:48:48;;;;;;;10.25;6.30;;;;;;;16.35;67.13;100444.44;5091987;28;20612;-59
2023/09/02 03:51:16;;;;;;;6.00;4.43;;;;;;;16.34;66.92;100450.53;5091143;28;20555;-59
2023/09/02 03:53:45;;;;;;;6.78;4.53;;;;;;;16.31;66.39;100448.03;5094316;28;20219;-59
2023/09/02 03:56:13;;;;;;;6.40;4.35;;;;;;;16.30;66.54;100450.66;5092567;28;20300;-61
2023/09/02 03:58:42;;;;;;;9.52;5.25;;;;;;;16.29;67.03;100451.56;5091901;28;20612;-61
2023/09/02 04:01:11;;;;;;;7.15;4.90;;;;;;;16.29;66.92;100444.63;5089503;28;20684;-59
2023/09/02 04:03:39;;;;;;;4.88;4.28;;;;;;;16.31;67.11;100450.63;5086808;28;20242;-60
2023/09/02 04:06:08;;;;;;;8.05;5.00;;;;;;;16.32;67.38;100449.72;5094426;28;20203;-61
2023/09/02 04:08:36;;;;;;;7.30;4.90;;;;;;;16.32;67.43;100448.88;5088333;28;20250;-67
2023/09/02 04:11:04;;;;;;;6.05;4.55;;;;;;;16.30;66.72;100446.31;5078765;28;20247;-59
2023/09/02 04:13:32;;;;;;;6.70;4.40;;;;;;;16.32;66.55;100457.53;5096219;28;20200;-58
2023/09/02 04:16:02;;;;;;;8.13;4.82;;;;;;;16.30;65.99;100451.50;5087085;28;20357;-58
2023/09/02 04:18:31;;;;;;;6.60;4.40;;;;;;;16.29;65.88;100459.38;5090455;28;20205;-64
2023/09/02 04:21:00;;;;;;;6.45;4.60;;;;;;;16.28;65.81;100457.66;5094875;28;20209;-60
2023/09/02 04:23:28;;;;;;;5.80;4.72;;;;;;;16.27;65.84;100455.94;5089615;28;20935;-60
2023/09/02 04:25:58;;;;;;;5.70;4.80;;;;;;;16.30;66.01;100461.91;5087866;28;20275;-63
2023/09/02 04:28:26;;;;;;;6.68;4.68;;;;;;;16.32;65.98;100460.13;5091629;28;20291;-59
2023/09/02 04:30:56;;;;;;;9.40;4.70;;;;;;;16.36;65.73;100461.75;5086486;28;20672;-60
2023/09/02 04:33:25;;;;;;;5.57;4.38;;;;;;;16.38;66.05;100465.13;5092002;28;20785;-62
2023/09/02 04:35:54;;;;;;;5.47;4.75;;;;;;;16.40;65.73;100471.16;5089936;28;20208;-60
2023/09/02 04:38:21;;;;;;;5.95;4.38;;;;;;;16.41;65.10;100466.81;5091477;28;20197;-60
2023/09/02 04:40:49;;;;;;;6.72;4.75;;;;;;;16.41;64.91;100477.22;5083928;28;20236;-58
2023/09/02 04:43:18;;;;;;;8.23;4.85;;;;;;;16.47;65.10;100478.78;5088837;28;20235;-61
2023/09/02 04:45:47;;;;;;;10.40;4.70;;;;;;;16.50;65.14;100479.56;5087065;28;20238;-59
2023/09/02 04:48:15;;;;;;;6.65;5.18;;;;;;;16.60;64.72;100482.72;5091109;28;20204;-60
2023/09/02 04:50:53;;;;;;;5.68;4.40;;;;;;;16.68;63.88;100480.78;5096885;28;20261;-59
2023/09/02 04:53:21;;;;;;;7.75;4.63;;;;;;;16.76;63.26;100485.78;5104407;28;20200;-62
2023/09/02 04:55:50;;;;;;;7.28;4.60;;;;;;;16.79;63.18;100485.66;5089422;28;22342;-60
2023/09/02 04:58:20;;;;;;;8.48;4.90;;;;;;;16.81;62.99;100487.34;5086209;28;20201;-59
2023/09/02 05:00:48;;;;;;;6.70;4.80;;;;;;;16.85;62.97;100481.13;5087483;28;20256;-60
2023/09/02 05:03:16;;;;;;;6.55;5.20;;;;;;;16.89;62.95;100487.94;5089064;28;20937;-60
2023/09/02 05:05:46;;;;;;;8.48;4.93;;;;;;;16.96;62.90;100488.63;5081111;28;20637;-62
2023/09/02 05:08:14;;;;;;;5.72;4.30;;;;;;;17.05;62.96;100490.09;5090793;28;20283;-61
2023/09/02 05:10:42;;;;;;;9.30;4.70;;;;;;;17.15;62.51;100488.91;5089274;28;20231;-62
2023/09/02 05:13:10;;;;;;;5.63;4.90;;;;;;;17.26;62.33;100497.22;5093740;28;20204;-61
2023/09/02 05:15:38;;;;;;;9.20;5.78;;;;;;;17.38;62.27;100504.66;5082991;28;20288;-63
2023/09/02 05:18:06;;;;;;;9.82;5.78;;;;;;;17.49;62.02;100517.34;5091335;28;20247;-59
2023/09/02 05:20:34;;;;;;;9.77;5.32;;;;;;;17.54;61.83;100512.81;5085495;28;20219;-62
2023/09/02 05:23:04;;;;;;;6.95;5.68;;;;;;;17.52;61.57;100504.19;5101824;28;20230;-59
2023/09/02 05:25:31;;;;;;;7.43;5.65;;;;;;;17.54;61.64;100522.38;5095820;28;20204;-59
2023/09/02 05:27:59;;;;;;;8.93;5.90;;;;;;;17.50;61.78;100526.00;5088775;28;20207;-61
2023/09/02 05:30:28;;;;;;;7.85;5.55;;;;;;;17.44;61.58;100520.97;5083620;28;20204;-59
2023/09/02 05:32:56;;;;;;;10.18;6.07;;;;;;;17.41;62.07;100521.06;5088614;28;20206;-62
2023/09/02 05:35:23;;;;;;;7.32;5.57;;;;;;;17.38;62.35;100530.72;5086958;28;20240;-59
2023/09/02 05:37:51;;;;;;;7.70;5.30;;;;;;;17.38;62.08;100524.66;5093993;28;20207;-61
2023/09/02 05:40:21;;;;;;;8.25;5.30;;;;;;;17.34;62.04;100523.00;5090114;28;20217;-60
2023/09/02 05:42:49;;;;;;;5.95;4.95;;;;;;;17.36;61.71;100526.44;5087916;28;20239;-62
2023/09/02 05:45:17;;;;;;;7.15;5.20;;;;;;;17.35;61.86;100527.34;5087601;28;20232;-58
2023/09/02 05:47:44;;;;;;;7.45;5.57;;;;;;;17.36;62.13;100523.84;5083602;28;20216;-62
2023/09/02 05:50:12;;;;;;;10.00;5.75;;;;;;;17.37;62.02;100525.53;5086877;28;20257;-61
2023/09/02 05:52:41;;;;;;;14.05;5.80;;;;;;;17.39;61.81;100527.19;5090520;28;20262;-60
2023/09/02 05:55:09;;;;;;;7.43;5.10;;;;;;;17.41;61.77;100534.09;5093716;28;20705;-61
2023/09/02 05:57:38;;;;;;;8.27;5.45;;;;;;;17.41;61.95;100531.50;5082838;28;20661;-59
2023/09/02 06:00:08;;;;;;;8.68;4.97;;;;;;;17.47;61.97;100534.75;5091324;28;20723;-59
2023/09/02 06:02:35;;;;;;;6.30;5.10;;;;;;;17.51;61.49;100530.31;5086105;28;20201;-59
2023/09/02 06:05:04;;;;;;;11.25;5.63;;;;;;;17.59;61.17;100541.31;5083170;28;20597;-61
2023/09/02 06:07:32;;;;;;;8.10;5.15;;;;;;;17.64;61.30;100534.22;5084946;28;20207;-61
2023/09/02 06:10:00;;;;;;;7.75;4.70;;;;;;;17.74;60.88;100530.38;5099633;28;20192;-59
2023/09/02 06:12:28;;;;;;;7.32;4.80;;;;;;;17.89;60.25;100533.41;5086646;28;20372;-59
2023/09/02 06:14:57;;;;;;;9.50;4.82;;;;;;;18.20;59.61;100541.06;5077454;28;20250;-60
2023/09/02 06:17:30;;;;;;;7.38;4.88;;;;;;;18.73;60.00;100538.28;5079685;28;20197;-63
2023/09/02 06:19:59;;;;;;;9.50;5.20;;;;;;;19.34;57.22;100533.31;5092551;28;20254;-59
2023/09/02 06:22:27;;;;;;;8.23;4.72;;;;;;;19.99;55.14;100534.13;5097409;28;20205;-60
2023/09/02 06:24:55;;;;;;;10.38;4.13;;;;;;;20.66;53.04;100539.06;5099351;28;20201;-58
2023/09/02 06:27:23;;;;;;;7.53;4.53;;;;;;;21.38;51.53;100538.31;5094860;28;20690;-59
2023/09/02 06:29:51;;;;;;;6.90;4.07;;;;;;;22.21;49.01;100539.44;5088227;28;20189;-60
2023/09/02 06:32:21;;;;;;;6.70;3.92;;;;;;;23.27;46.25;100536.34;5085070;28;20704;-66
2023/09/02 06:34:53;;;;;;;6.18;3.88;;;;;;;24.52;42.81;100539.53;5090521;28;20234;-60
2023/09/02 06:37:21;;;;;;;7.15;3.80;;;;;;;25.97;40.31;100539.00;5090022;28;20670;-67
2023/09/02 06:39:52;;;;;;;6.20;3.35;;;;;;;27.49;36.46;100539.66;5090755;28;20597;-60
2023/09/02 06:42:20;;;;;;;7.40;3.47;;;;;;;28.92;33.99;100539.28;5090731;28;20263;-60
2023/09/02 06:44:48;;;;;;;7.55;2.97;;;;;;;30.02;30.91;100535.50;5078826;28;20236;-61
2023/09/02 06:47:16;;;;;;;4.80;3.00;;;;;;;30.93;29.19;100531.13;5083939;28;21768;-59
2023/09/02 06:49:46;;;;;;;4.75;2.75;;;;;;;31.31;27.57;100535.72;5091312;28;20463;-62
2023/09/02 06:52:14;;;;;;;5.40;3.33;;;;;;;31.56;27.24;100536.97;5097049;28;20567;-61
2023/09/02 06:54:42;;;;;;;3.00;2.75;;;;;;;31.52;26.60;100536.41;5090909;28;20201;-60
2023/09/02 06:57:10;;;;;;;3.90;2.50;;;;;;;31.32;26.40;100537.38;5089994;28;20208;-62
2023/09/02 06:59:38;;;;;;;3.75;2.95;;;;;;;30.63;27.79;100545.31;5098825;28;20208;-60
2023/09/02 07:02:06;;;;;;;4.50;3.05;;;;;;;29.88;28.89;100549.09;5083954;28;20241;-62
2023/09/02 07:04:34;;;;;;;4.60;3.03;;;;;;;29.10;29.96;100551.09;5085500;28;20232;-61
2023/09/02 07:07:04;;;;;;;4.47;2.63;;;;;;;28.48;30.99;100557.75;5093979;28;20213;-61
2023/09/02 07:09:32;;;;;;;3.67;2.40;;;;;;;28.05;31.41;100561.03;5093306;28;20544;-61
2023/09/02 07:12:00;;;;;;;4.10;2.88;;;;;;;27.69;31.91;100560.22;5093903;28;20622;-60
2023/09/02 07:14:27;;;;;;;3.53;2.63;;;;;;;27.38;32.07;100563.44;5093945;28;20663;-60
2023/09/02 07:16:55;;;;;;;5.78;2.67;;;;;;;27.08;32.34;100563.84;5086334;28;20200;-60
2023/09/02 07:19:24;;;;;;;2.65;2.42;;;;;;;26.72;33.04;100568.16;5089731;28;20695;-61
2023/09/02 07:21:52;;;;;;;5.78;2.63;;;;;;;26.51;33.86;100575.78;5083808;28;20220;-63
2023/09/02 07:24:23;;;;;;;3.13;2.25;;;;;;;26.29;33.65;100579.06;5086581;28;20208;-61
2023/09/02 07:26:51;;;;;;;3.47;2.55;;;;;;;26.00;33.91;100571.31;5088945;28;20205;-61
2023/09/02 07:29:19;;;;;;;3.28;2.50;;;;;;;25.82;33.87;100583.13;5087720;28;20216;-61
2023/09/02 07:31:47;;;;;;;3.20;2.67;;;;;;;25.43;34.78;100582.13;5089589;28;20278;-61
2023/09/02 07:34:15;;;;;;;5.05;2.40;;;;;;;25.22;35.75;100580.84;5084501;28;20211;-61
2023/09/02 07:36:44;;;;;;;3.13;2.08;;;;;;;25.12;35.60;100577.97;5091212;28;20196;-62
2023/09/02 07:39:12;;;;;;;2.42;2.13;;;;;;;24.97;35.34;100590.31;5085016;28;20661;-61
2023/09/02 07:41:42;;;;;;;2.95;2.17;;;;;;;24.82;35.13;100591.28;5091530;28;20236;-59
2023/09/02 07:44:10;;;;;;;2.45;2.10;;;;;;;24.65;36.49;100594.94;5090567;28;20204;-60
2023/09/02 07:46:38;;;;;;;3.95;2.28;;;;;;;24.61;36.60;100597.88;5088893;28;20232;-61
2023/09/02 07:49:06;;;;;;;2.72;2.20;;;;;;;24.56;36.05;100600.78;5093632;28;20710;-60
2023/09/02 07:51:34;;;;;;;5.20;2.80;;;;;;;24.49;36.30;100600.31;5091480;28;20223;-63
2023/09/02 07:54:02;;;;;;;3.88;2.33;;;;;;;24.30;36.47;100610.22;5087059;28;20262;-63
2023/09/02 07:56:30;;;;;;;8.55;2.53;;;;;;;24.13;37.28;100607.75;5085503;28;20230;-62
2023/09/02 07:58:59;;;;;;;3.72;2.40;;;;;;;24.10;37.46;100608.78;5083747;28;20267;-64
2023/09/02 08:01:29;;;;;;;2.80;2.38;;;;;;;24.02;37.76;100606.59;5082312;28;20220;-64
2023/09/02 08:03:57;;;;;;;2.83;2.22;;;;;;;23.97;37.81;100600.75;5072687;28;20222;-63
2023/09/02 08:06:25;;;;;;;4.57;2.05;;;;;;;24.05;37.74;100609.03;5079359;28;20583;-61
2023/09/02 08:08:53;;;;;;;2.45;1.80;;;;;;;24.15;37.70;100611.97;5086070;28;20655;-61
2023/09/02 08:11:21;;;;;;;4.38;2.20;;;;;;;24.21;37.42;100610.78;5087962;28;20220;-63
2023/09/02 08:13:49;;;;;;;4.75;1.92;;;;;;;24.30;37.27;100615.47;5100253;28;20207;-60
2023/09/02 08:16:18;;;;;;;2.83;1.80;;;;;;;24.36;36.55;100625.66;5083630;28;20212;-61
2023/09/02 08:18:46;;;;;;;3.20;1.60;;;;;;;24.30;36.46;100623.38;5084195;28;20212;-62
2023/09/02 08:21:14;;;;;;;4.18;1.85;;;;;;;24.29;36.39;100619.06;5078047;28;20938;-63
2023/09/02 08:23:42;;;;;;;5.07;1.90;;;;;;;24.12;36.81;100614.81;5091470;28;20296;-67
2023/09/02 08:26:12;;;;;;;3.03;1.73;;;;;;;24.15;36.41;100611.97;5083261;28;20655;-64
2023/09/02 08:28:40;;;;;;;2.92;1.90;;;;;;;24.29;37.00;100619.06;5081474;28;20200;-65
2023/09/02 08:31:11;;;;;;;2.53;1.52;;;;;;;24.37;36.37;100613.34;5075068;28;20209;-62
2023/09/02 08:33:40;;;;;;;3.35;1.90;;;;;;;24.57;36.11;100620.94;5076070;28;20561;-63
2023/09/02 08:36:14;;;;;;;3.67;1.67;;;;;;;24.68;36.13;100623.75;5082314;28;20679;-64
2023/09/02 08:38:42;;;;;;;2.90;1.50;;;;;;;24.91;35.49;100619.69;5083100;28;20215;-65
2023/09/02 08:41:14;;;;;;;3.20;1.90;;;;;;;25.20;34.83;100622.31;5087590;28;20209;-61
2023/09/02 08:43:42;;;;;;;3.40;1.90;;;;;;;25.37;34.68;100624.75;5084747;28;20232;-64
2023/09/02 08:46:13;;;;;;;3.67;2.35;;;;;;;25.57;34.28;100626.09;5074841;28;20204;-61
2023/09/02 08:48:44;;;;;;;3.00;1.80;;;;;;;26.14;33.10;100630.28;5089886;28;20235;-62
2023/09/02 08:51:13;;;;;;;2.58;1.63;;;;;;;26.63;32.16;100629.63;5091067;28;20204;-62
2023/09/02 08:53:43;;;;;;;4.63;1.75;;;;;;;27.07;31.89;100636.25;5085589;28;20204;-62
2023/09/02 08:56:11;;;;;;;1.85;1.60;;;;;;;27.70;31.22;100630.75;5075496;28;20580;-61
2023/09/02 08:58:40;;;;;;;2.83;1.85;;;;;;;28.48;30.12;100631.16;5086064;28;20557;-62
2023/09/02 09:01:09;;;;;;;2.15;1.65;;;;;;;29.30;27.97;100629.94;5075121;28;20609;-63
2023/09/02 09:03:41;;;;;;;3.78;1.85;;;;;;;29.91;26.82;100623.25;5090137;28;20204;-63
2023/09/02 09:06:12;;;;;;;2.17;1.50;;;;;;;30.46;26.62;100635.41;5076228;28;20306;-62
2023/09/02 09:08:42;;;;;;;1.95;1.67;;;;;;;31.08;25.95;100630.06;5088907;28;20204;-65
2023/09/02 09:11:12;;;;;;;4.07;1.67;;;;;;;31.52;24.49;100634.97;5081292;28;20197;-63
2023/09/02 09:13:45;;;;;;;4.88;1.95;;;;;;;31.75;24.81;100627.53;5089793;28;20204;-64
2023/09/02 09:16:16;;;;;;;2.45;1.70;;;;;;;32.16;24.09;100630.91;5084873;28;20212;-65
2023/09/02 09:18:44;;;;;;;4.03;1.70;;;;;;;32.23;24.01;100633.84;5078588;28;20204;-61
2023/09/02 09:21:13;;;;;;;2.78;1.65;;;;;;;32.42;23.87;100641.00;5087205;28;20216;-62
2023/09/02 09:23:41;;;;;;;3.65;1.70;;;;;;;32.53;23.49;100634.63;5078859;28;20204;-66
2023/09/02 09:26:11;;;;;;;1.98;1.50;;;;;;;32.42;23.41;100641.00;5086942;28;20229;-62
2023/09/02 09:28:51;;;;;;;2.08;1.30;;;;;;;32.12;23.47;100636.66;5073438;28;20214;-60
2023/09/02 09:31:19;;;;;;;3.20;1.90;;;;;;;31.54;23.95;100647.31;5076137;28;20292;-63
2023/09/02 09:33:53;;;;;;;3.60;1.80;;;;;;;31.22;24.58;100643.00;5098795;28;22515;-62
2023/09/02 09:36:23;;;;;;;2.05;1.77;;;;;;;30.96;25.23;100647.97;5089744;28;20192;-61
2023/09/02 09:38:54;;;;;;;2.65;1.88;;;;;;;30.47;25.06;100644.22;5090338;28;20201;-60
2023/09/02 09:41:23;;;;;;;3.00;1.40;;;;;;;30.02;26.17;100652.44;5078029;28;20240;-63
2023/09/02 09:44:04;;;;;;;2.78;1.73;;;;;;;29.81;26.70;100655.88;5097444;28;20318;-63
2023/09/02 09:46:34;;;;;;;1.67;1.52;;;;;;;29.65;27.08;100655.47;5083947;28;20235;-61
2023/09/02 09:49:03;;;;;;;2.10;1.80;;;;;;;29.54;27.05;100653.66;5091208;28;20617;-61
2023/09/02 09:51:32;;;;;;;2.72;2.03;;;;;;;29.56;27.59;100651.72;5089850;28;20208;-60
2023/09/02 09:54:00;;;;;;;2.85;1.80;;;;;;;29.60;27.16;100655.84;5089262;28;20193;-61
2023/09/02 09:56:28;;;;;;;3.67;2.00;;;;;;;29.85;27.41;100667.09;5073226;28;20763;-61
2023/09/02 09:59:07;;;;;;;3.92;2.00;;;;;;;29.73;26.46;100658.34;5090520;28;20244;-62
2023/09/02 10:01:36;;;;;;;4.20;1.92;;;;;;;29.62;26.93;100653.06;5083428;28;20201;-61
2023/09/02 10:04:07;;;;;;;4.13;1.50;;;;;;;29.50;27.87;100662.00;5090262;28;20201;-62
2023/09/02 10:06:38;;;;;;;1.63;1.52;;;;;;;30.11;26.69;100664.94;5086036;28;20235;-61
2023/09/02 10:09:07;;;;;;;2.22;1.73;;;;;;;30.76;25.21;100669.19;5082997;28;20205;-59
2023/09/02 10:11:36;;;;;;;2.35;1.73;;;;;;;31.05;25.12;100668.47;5092199;28;20655;-62
2023/09/02 10:14:05;;;;;;;2.50;1.63;;;;;;;30.59;25.99;100655.63;5087397;28;20207;-64
2023/09/02 10:16:35;;;;;;;4.40;2.03;;;;;;;30.44;26.09;100665.75;5086383;28;20197;-61
2023/09/02 10:19:04;;;;;;;2.70;1.92;;;;;;;30.45;25.63;100670.09;5076915;28;20204;-61
2023/09/02 10:21:35;;;;;;;2.80;1.67;;;;;;;29.60;26.27;100666.47;5086936;28;20936;-62
2023/09/02 10:24:10;;;;;;;4.50;2.53;;;;;;;28.12;28.42;100667.41;5092188;28;20628;-61
2023/09/02 10:26:45;;;;;;;3.78;1.98;;;;;;;26.90;30.84;100682.38;5090942;28;20600;-59
2023/09/02 10:29:14;;;;;;;2.17;1.60;;;;;;;26.19;31.59;100683.66;5090974;28;20666;-62
2023/09/02 10:31:46;;;;;;;4.22;1.55;;;;;;;26.28;32.88;100680.41;5088518;28;20208;-61
2023/09/02 10:34:16;;;;;;;4.25;1.63;;;;;;;26.60;31.82;100685.34;5084381;28;20209;-59
2023/09/02 10:36:48;;;;;;;2.83;1.52;;;;;;;26.39;31.90;100677.88;5077557;28;20199;-66
2023/09/02 10:39:28;;;;;;;1.92;1.65;;;;;;;26.04;32.74;100682.06;5085467;28;20652;-62
2023/09/02 10:41:57;;;;;;;2.65;1.77;;;;;;;25.64;33.51;100681.97;5083925;28;20232;-61
2023/09/02 10:44:26;;;;;;;2.03;1.60;;;;;;;25.68;34.06;100683.47;5089076;28;20205;-62
2023/09/02 10:46:54;;;;;;;2.30;1.63;;;;;;;26.25;32.67;100678.84;5081654;28;20300;-61
2023/09/02 10:49:26;;;;;;;1.77;1.67;;;;;;;26.62;32.04;100684.28;5090598;28;20200;-60
2023/09/02 10:51:55;;;;;;;3.22;1.60;;;;;;;27.06;31.41;100682.97;5087069;28;20732;-61
2023/09/02 10:54:24;;;;;;;3.17;2.10;;;;;;;27.45;30.43;100668.75;5077214;28;20718;-59
2023/09/02 10:56:52;;;;;;;2.53;1.70;;;;;;;27.72;30.50;100680.09;5086999;28;20207;-61
2023/09/02 10:59:30;;;;;;;2.55;1.73;;;;;;;28.07;30.17;100682.81;5082617;28;20246;-60
2023/09/02 11:01:58;;;;;;;2.78;1.73;;;;;;;27.70;30.24;100686.34;5090628;28;21031;-60
2023/09/02 11:04:57;;;;;;;1.70;1.60;;;;;;;27.06;31.40;100692.72;5089280;28;20236;-61
2023/09/02 11:07:27;;;;;;;2.97;2.03;;;;;;;27.07;31.31;100687.34;5067373;28;20216;-62
2023/09/02 11:09:58;;;;;;;2.00;1.60;;;;;;;26.95;31.71;100696.13;5086108;28;20217;-60
2023/09/02 11:12:27;;;;;;;3.22;1.85;;;;;;;26.49;32.45;100700.13;5090355;28;20627;-64
2023/09/02 11:15:18;;;;;;;3.30;1.52;;;;;;;25.91;33.61;100698.69;5087371;28;20326;-64
2023/09/02 11:17:46;;;;;;;4.72;2.03;;;;;;;25.56;34.63;100700.09;5089995;28;20197;-60
2023/09/02 11:20:18;;;;;;;2.42;1.60;;;;;;;25.42;34.85;100701.81;5094123;28;20332;-60
2023/09/02 11:22:55;;;;;;;4.13;1.70;;;;;;;25.39;35.29;100701.16;5092632;28;20208;-61
2023/09/02 11:25:32;;;;;;;2.10;1.80;;;;;;;25.72;34.65;100700.78;5085432;28;20207;-61
2023/09/02 11:28:01;;;;;;;2.28;1.67;;;;;;;26.14;34.57;100699.84;5085531;28;20200;-62
2023/09/02 11:30:31;;;;;;;3.83;2.15;;;;;;;26.41;33.34;100696.28;5082239;28;20292;-61
2023/09/02 11:33:00;;;;;;;3.17;1.63;;;;;;;26.46;32.70;100705.63;5059560;28;20299;-61
2023/09/02 11:35:30;;;;;;;2.38;1.80;;;;;;;26.44;32.85;100696.09;5081628;28;20201;-60